Time;durP1;ratioP1;P1;durP2;ratioP2;P2;SDS_P1;SDS_P2;PMS_P1;PMS_P2;Temp;Humidity;BMP_temperature;BMP_pressure;BME280_temperature;BME280_humidity;BME280_pressure;Samples;Min_cycle;Max_cycle;Signal;HPM_P1;HPM_P2
2022/12/14 00:00:05;;;;;;;28.83;16.63;;;;;;;;;;5094768;28;20052;-72
2022/12/14 00:02:51;;;;;;;26.48;15.20;;;;;;;;;;5094700;28;20433;-73
2022/12/14 00:05:37;;;;;;;23.42;14.05;;;;;;;;;;5094487;28;20024;-73
2022/12/14 00:08:22;;;;;;;25.70;14.13;;;;;;;;;;5067154;28;20028;-73
2022/12/14 00:11:08;;;;;;;22.35;13.55;;;;;;;;;;5094257;28;20111;-72
2022/12/14 00:13:55;;;;;;;23.02;13.23;;;;;;;;;;5094789;28;20523;-74
2022/12/14 00:16:41;;;;;;;23.67;13.30;;;;;;;;;;5094887;28;20020;-73
2022/12/14 00:19:27;;;;;;;23.38;13.52;;;;;;;;;;5094155;28;20016;-73
2022/12/14 00:22:12;;;;;;;24.85;13.20;;;;;;;;;;5094021;28;20477;-73
2022/12/14 00:24:58;;;;;;;21.63;12.98;;;;;;;;;;5093756;28;20024;-73
2022/12/14 00:27:44;;;;;;;20.58;12.52;;;;;;;;;;5094078;28;20494;-72
2022/12/14 00:30:30;;;;;;;20.85;13.45;;;;;;;;;;5080401;28;20020;-73
2022/12/14 00:33:15;;;;;;;24.38;13.98;;;;;;;;;;5093490;28;20024;-73
2022/12/14 00:36:01;;;;;;;27.42;14.27;;;;;;;;;;5093835;28;20036;-73
2022/12/14 00:38:47;;;;;;;26.58;15.00;;;;;;;;;;5093572;28;20099;-73
2022/12/14 00:41:32;;;;;;;27.23;15.55;;;;;;;;;;5078476;28;20145;-72
2022/12/14 00:44:18;;;;;;;24.88;14.10;;;;;;;;;;5094012;28;20012;-73
2022/12/14 00:47:04;;;;;;;25.05;14.25;;;;;;;;;;5092651;28;20027;-73
2022/12/14 00:49:49;;;;;;;25.67;14.20;;;;;;;;;;5093491;28;20373;-73
2022/12/14 00:52:35;;;;;;;27.40;15.77;;;;;;;;;;5093681;28;20041;-73
2022/12/14 00:55:20;;;;;;;25.30;14.98;;;;;;;;;;5093165;28;20031;-72
2022/12/14 00:58:06;;;;;;;23.38;14.35;;;;;;;;;;5093286;28;20028;-73
2022/12/14 01:00:59;;;;;;;24.25;13.80;;;;;;;;;;5085256;28;20018;-73
2022/12/14 01:03:45;;;;;;;24.75;13.70;;;;;;;;;;5094127;28;20115;-72
2022/12/14 01:06:30;;;;;;;27.20;15.43;;;;;;;;;;5094072;28;20016;-72
2022/12/14 01:09:16;;;;;;;25.65;14.68;;;;;;;;;;5078551;28;20469;-72
2022/12/14 01:12:02;;;;;;;28.88;15.30;;;;;;;;;;5093254;28;20107;-72
2022/12/14 01:14:48;;;;;;;25.45;15.85;;;;;;;;;;5078766;28;20012;-72
2022/12/14 01:17:33;;;;;;;27.38;15.50;;;;;;;;;;5092697;28;20085;-72
2022/12/14 01:20:19;;;;;;;26.65;14.90;;;;;;;;;;5078192;28;20154;-73
2022/12/14 01:23:04;;;;;;;27.20;14.63;;;;;;;;;;5093559;28;20019;-72
2022/12/14 01:25:50;;;;;;;26.35;14.55;;;;;;;;;;5085540;28;20107;-73
2022/12/14 01:28:35;;;;;;;24.15;14.48;;;;;;;;;;5092883;28;20020;-73
2022/12/14 01:31:24;;;;;;;24.58;14.45;;;;;;;;;;5079051;28;20028;-72
2022/12/14 01:34:10;;;;;;;26.52;15.00;;;;;;;;;;5092899;28;20052;-72
2022/12/14 01:36:56;;;;;;;27.95;14.88;;;;;;;;;;5092854;28;20023;-72
2022/12/14 01:39:41;;;;;;;26.58;15.43;;;;;;;;;;5092572;28;20081;-72
2022/12/14 01:42:27;;;;;;;26.50;15.02;;;;;;;;;;5092780;28;20016;-73
2022/12/14 01:45:17;;;;;;;27.90;15.15;;;;;;;;;;5092523;28;20050;-72
2022/12/14 01:48:03;;;;;;;25.52;14.88;;;;;;;;;;5093272;28;20020;-73
2022/12/14 01:50:48;;;;;;;26.67;14.70;;;;;;;;;;5094000;28;20020;-72
2022/12/14 01:53:34;;;;;;;26.30;14.30;;;;;;;;;;5079830;28;20020;-72
2022/12/14 01:56:20;;;;;;;25.63;15.07;;;;;;;;;;5079055;28;20023;-72
2022/12/14 01:59:07;;;;;;;26.80;14.90;;;;;;;;;;5092828;28;20103;-72
2022/12/14 02:01:53;;;;;;;25.17;14.65;;;;;;;;;;5092836;28;20056;-72
2022/12/14 02:04:42;;;;;;;23.00;14.13;;;;;;;;;;5093284;28;20016;-72
2022/12/14 02:07:28;;;;;;;24.55;15.18;;;;;;;;;;5093974;28;20024;-72
2022/12/14 02:10:14;;;;;;;27.45;15.40;;;;;;;;;;5092885;28;20024;-73
2022/12/14 02:13:13;;;;;;;26.23;14.93;;;;;;;;;;5096975;28;20409;-73
2022/12/14 02:15:59;;;;;;;27.00;14.65;;;;;;;;;;5096841;28;20035;-72
2022/12/14 02:18:44;;;;;;;27.02;15.15;;;;;;;;;;5081201;28;20008;-72
2022/12/14 02:22:08;;;;;;;26.02;14.85;;;;;;;;;;5097164;28;20077;-73
2022/12/14 02:25:12;;;;;;;25.60;14.30;;;;;;;;;;5000757;28;20433;-73
2022/12/14 02:28:01;;;;;;;25.10;14.52;;;;;;;;;;4997691;28;20026;-73
2022/12/14 02:30:53;;;;;;;26.63;15.38;;;;;;;;;;5082409;28;20016;-72
2022/12/14 02:33:41;;;;;;;25.48;14.20;;;;;;;;;;5106226;28;20024;-72
2022/12/14 02:36:32;;;;;;;28.20;15.10;;;;;;;;;;5092922;28;20023;-71
2022/12/14 02:39:31;;;;;;;24.67;13.95;;;;;;;;;;5105327;28;20032;-72
2022/12/14 02:42:23;;;;;;;24.98;14.60;;;;;;;;;;5107220;28;20020;-72
2022/12/14 02:45:11;;;;;;;26.60;15.00;;;;;;;;;;5095695;28;20020;-73
2022/12/14 02:48:01;;;;;;;25.38;14.25;;;;;;;;;;5096087;28;20103;-72
2022/12/14 02:51:10;;;;;;;25.52;14.57;;;;;;;;;;5096328;28;20020;-72
2022/12/14 02:54:00;;;;;;;24.58;14.43;;;;;;;;;;5096136;28;20047;-72
2022/12/14 02:56:47;;;;;;;25.48;14.85;;;;;;;;;;5098762;28;20334;-73
2022/12/14 02:59:33;;;;;;;25.75;15.10;;;;;;;;;;5097682;28;20020;-73
2022/12/14 03:02:19;;;;;;;28.85;15.02;;;;;;;;;;5095333;28;20056;-72
2022/12/14 03:05:04;;;;;;;27.42;15.10;;;;;;;;;;5096264;28;20024;-71
2022/12/14 03:08:10;;;;;;;28.63;15.80;;;;;;;;;;5097203;28;20073;-72
2022/12/14 03:10:58;;;;;;;27.92;14.98;;;;;;;;;;5102684;28;20027;-71
2022/12/14 03:13:57;;;;;;;27.05;14.18;;;;;;;;;;5081023;28;20029;-72
2022/12/14 03:16:44;;;;;;;27.95;14.75;;;;;;;;;;5094142;28;20036;-71
2022/12/14 03:19:36;;;;;;;28.27;15.68;;;;;;;;;;5112539;28;20004;-71
2022/12/14 03:22:24;;;;;;;29.88;15.82;;;;;;;;;;5106189;28;20000;-72
2022/12/14 03:25:13;;;;;;;25.55;15.27;;;;;;;;;;5111551;28;20361;-72
2022/12/14 03:28:05;;;;;;;26.23;15.35;;;;;;;;;;5098065;28;20103;-72
2022/12/14 03:30:54;;;;;;;28.95;16.60;;;;;;;;;;5095293;28;20034;-73
2022/12/14 03:33:41;;;;;;;31.05;16.13;;;;;;;;;;5080379;28;20334;-72
2022/12/14 03:36:41;;;;;;;28.83;15.98;;;;;;;;;;5101702;28;20441;-72
2022/12/14 03:39:31;;;;;;;32.30;16.90;;;;;;;;;;5095411;28;20012;-73
2022/12/14 03:42:24;;;;;;;29.70;16.40;;;;;;;;;;5094797;28;20042;-72
2022/12/14 03:45:10;;;;;;;27.48;14.75;;;;;;;;;;5079810;28;20111;-73
2022/12/14 03:48:14;;;;;;;26.40;15.95;;;;;;;;;;5095554;28;20073;-73
2022/12/14 03:51:18;;;;;;;27.92;15.25;;;;;;;;;;5095408;28;20016;-73
2022/12/14 03:54:04;;;;;;;26.98;15.18;;;;;;;;;;5095568;28;20464;-72
2022/12/14 03:56:53;;;;;;;26.75;14.88;;;;;;;;;;5094637;28;20020;-73
2022/12/14 03:59:48;;;;;;;26.73;14.88;;;;;;;;;;5080270;28;20066;-73
2022/12/14 04:02:43;;;;;;;27.52;15.38;;;;;;;;;;5094087;28;20047;-73
2022/12/14 04:05:29;;;;;;;27.67;15.82;;;;;;;;;;5080102;28;20020;-73
2022/12/14 04:08:23;;;;;;;31.35;16.05;;;;;;;;;;5094396;28;20107;-72
2022/12/14 04:20:34;;;;;;;30.45;16.25;;;;;;;;;;5094115;28;20028;-73
2022/12/14 04:26:34;;;;;;;32.17;16.00;;;;;;;;;;5095297;28;20024;-73
2022/12/14 04:32:28;;;;;;;28.15;15.48;;;;;;;;;;5094754;28;20012;-73
2022/12/14 04:35:20;;;;;;;27.02;14.55;;;;;;;;;;5079825;28;20031;-72
2022/12/14 04:38:15;;;;;;;32.85;15.77;;;;;;;;;;5093896;28;20016;-73
2022/12/14 04:41:04;;;;;;;32.83;15.13;;;;;;;;;;5079591;28;20103;-74
2022/12/14 04:43:53;;;;;;;26.73;14.40;;;;;;;;;;5093811;28;20020;-72
2022/12/14 04:46:39;;;;;;;31.05;16.52;;;;;;;;;;5094342;28;20024;-73
2022/12/14 04:49:27;;;;;;;33.28;15.13;;;;;;;;;;5094587;28;20020;-73
2022/12/14 04:52:21;;;;;;;35.53;16.35;;;;;;;;;;5093488;28;20093;-73
2022/12/14 04:55:09;;;;;;;33.80;16.02;;;;;;;;;;5094308;28;20091;-73
2022/12/14 04:58:01;;;;;;;38.65;16.25;;;;;;;;;;5093164;28;20028;-73
2022/12/14 05:00:56;;;;;;;34.88;17.25;;;;;;;;;;5093425;28;20043;-72
2022/12/14 05:03:50;;;;;;;35.75;16.15;;;;;;;;;;5093196;28;20024;-73
2022/12/14 05:07:03;;;;;;;32.28;16.42;;;;;;;;;;5094747;28;20430;-72
2022/12/14 05:09:48;;;;;;;34.40;16.77;;;;;;;;;;5093257;28;20027;-73
2022/12/14 05:12:34;;;;;;;31.83;17.23;;;;;;;;;;5093452;28;20403;-71
2022/12/14 05:15:22;;;;;;;35.90;17.75;;;;;;;;;;5092868;28;20028;-72
2022/12/14 05:18:09;;;;;;;39.75;17.88;;;;;;;;;;5093035;28;20080;-75
2022/12/14 05:20:54;;;;;;;39.03;17.80;;;;;;;;;;5065105;28;20372;-75
2022/12/14 05:23:40;;;;;;;38.88;18.05;;;;;;;;;;5093273;28;20024;-74
2022/12/14 05:26:25;;;;;;;35.65;18.70;;;;;;;;;;5093211;28;20031;-73
2022/12/14 05:29:11;;;;;;;35.75;17.25;;;;;;;;;;5079936;28;20115;-75
2022/12/14 05:31:57;;;;;;;29.33;17.15;;;;;;;;;;5085737;28;20043;-74
2022/12/14 05:34:42;;;;;;;31.77;17.83;;;;;;;;;;5092951;28;20031;-74
2022/12/14 05:37:28;;;;;;;30.55;17.60;;;;;;;;;;5093111;28;20046;-75
2022/12/14 05:40:14;;;;;;;33.88;17.15;;;;;;;;;;5092785;28;20206;-74
2022/12/14 05:43:04;;;;;;;35.15;17.45;;;;;;;;;;5093605;28;20338;-77
2022/12/14 05:45:49;;;;;;;32.50;17.70;;;;;;;;;;5079857;28;20089;-74
2022/12/14 05:48:35;;;;;;;40.92;19.05;;;;;;;;;;5098095;28;20031;-77
2022/12/14 05:51:21;;;;;;;39.28;18.77;;;;;;;;;;5096605;28;20025;-77
2022/12/14 05:54:06;;;;;;;36.22;18.80;;;;;;;;;;5082495;28;20556;-77
2022/12/14 05:56:52;;;;;;;39.55;18.80;;;;;;;;;;5097127;28;20027;-77
2022/12/14 05:59:37;;;;;;;35.95;18.90;;;;;;;;;;5082737;28;20434;-78
2022/12/14 06:02:23;;;;;;;37.75;18.20;;;;;;;;;;5081711;28;20091;-78
2022/12/14 06:05:08;;;;;;;31.90;18.02;;;;;;;;;;5082247;28;20016;-78
2022/12/14 06:07:54;;;;;;;35.78;18.45;;;;;;;;;;5096582;28;20035;-78
2022/12/14 06:10:40;;;;;;;38.53;19.08;;;;;;;;;;5082898;28;20016;-77
2022/12/14 06:13:26;;;;;;;37.97;18.58;;;;;;;;;;5082118;28;20016;-75
2022/12/14 06:16:16;;;;;;;38.42;19.10;;;;;;;;;;5097103;28;20024;-75
2022/12/14 06:19:03;;;;;;;42.08;19.23;;;;;;;;;;5082008;28;20020;-76
2022/12/14 06:21:48;;;;;;;41.30;19.63;;;;;;;;;;5095772;28;20020;-75
2022/12/14 06:24:34;;;;;;;39.10;20.25;;;;;;;;;;5096202;28;20103;-74
2022/12/14 06:27:19;;;;;;;41.15;20.27;;;;;;;;;;5082413;28;20430;-74
2022/12/14 06:30:05;;;;;;;39.75;20.98;;;;;;;;;;5082271;28;20066;-75
2022/12/14 06:32:51;;;;;;;42.38;19.98;;;;;;;;;;5081155;28;20012;-75
2022/12/14 06:35:36;;;;;;;43.30;22.70;;;;;;;;;;5081596;28;20024;-75
2022/12/14 06:38:22;;;;;;;41.28;21.50;;;;;;;;;;5081754;28;20028;-75
2022/12/14 06:41:08;;;;;;;44.85;22.15;;;;;;;;;;5096535;28;20438;-75
2022/12/14 06:43:53;;;;;;;47.70;24.48;;;;;;;;;;5095795;28;20077;-76
2022/12/14 06:46:39;;;;;;;45.17;23.05;;;;;;;;;;5095562;28;20020;-75
2022/12/14 06:49:25;;;;;;;43.35;22.60;;;;;;;;;;5096456;28;20373;-75
2022/12/14 06:52:11;;;;;;;41.55;22.17;;;;;;;;;;5095759;28;20464;-75
2022/12/14 06:54:56;;;;;;;39.45;20.13;;;;;;;;;;5095925;28;20028;-74
2022/12/14 06:57:42;;;;;;;38.53;21.40;;;;;;;;;;5081670;28;20031;-75
2022/12/14 07:00:28;;;;;;;40.55;21.38;;;;;;;;;;5095140;28;20020;-75
2022/12/14 07:03:13;;;;;;;38.35;21.20;;;;;;;;;;5054344;28;20071;-75
2022/12/14 07:06:00;;;;;;;41.72;19.67;;;;;;;;;;5068858;28;20035;-75
2022/12/14 07:08:46;;;;;;;34.83;18.67;;;;;;;;;;5061185;28;20020;-75
2022/12/14 07:11:32;;;;;;;33.75;18.83;;;;;;;;;;5075680;28;20094;-74
2022/12/14 07:14:17;;;;;;;36.30;17.65;;;;;;;;;;5075409;28;20029;-74
2022/12/14 07:17:03;;;;;;;32.38;18.52;;;;;;;;;;5075836;28;20035;-74
2022/12/14 07:19:49;;;;;;;41.38;20.67;;;;;;;;;;5050390;28;20024;-74
2022/12/14 07:22:34;;;;;;;40.53;20.35;;;;;;;;;;5061253;28;20119;-74
2022/12/14 07:25:20;;;;;;;42.88;20.58;;;;;;;;;;5060727;28;20017;-74
2022/12/14 07:28:06;;;;;;;40.53;20.13;;;;;;;;;;5074843;28;20017;-73
2022/12/14 07:30:53;;;;;;;40.25;20.40;;;;;;;;;;5075470;28;20399;-75
2022/12/14 07:33:39;;;;;;;43.03;20.85;;;;;;;;;;5075919;28;20166;-74
2022/12/14 07:36:26;;;;;;;34.55;19.08;;;;;;;;;;5075592;28;20465;-74
2022/12/14 07:39:15;;;;;;;34.25;18.30;;;;;;;;;;5074652;28;20086;-73
2022/12/14 07:42:01;;;;;;;30.13;16.40;;;;;;;;;;5075505;28;20020;-76
2022/12/14 07:44:47;;;;;;;30.48;16.73;;;;;;;;;;5075564;28;20021;-75
2022/12/14 07:47:32;;;;;;;36.28;16.77;;;;;;;;;;5059808;28;20466;-75
2022/12/14 07:50:18;;;;;;;33.80;17.13;;;;;;;;;;5075587;28;20039;-73
2022/12/14 07:53:03;;;;;;;36.60;17.30;;;;;;;;;;5075794;28;20031;-74
2022/12/14 07:55:49;;;;;;;37.25;18.73;;;;;;;;;;5060430;28;20111;-75
2022/12/14 07:58:35;;;;;;;35.85;19.05;;;;;;;;;;5074590;28;20418;-76
2022/12/14 08:01:25;;;;;;;34.15;18.23;;;;;;;;;;5081992;28;20056;-75
2022/12/14 08:04:14;;;;;;;37.38;18.65;;;;;;;;;;5081458;28;20047;-75
2022/12/14 08:07:00;;;;;;;43.95;19.98;;;;;;;;;;5094514;28;20078;-75
2022/12/14 08:09:46;;;;;;;47.85;21.73;;;;;;;;;;5079552;28;20399;-76
2022/12/14 08:12:32;;;;;;;44.08;22.10;;;;;;;;;;5094126;28;20027;-75
2022/12/14 08:15:17;;;;;;;44.75;20.65;;;;;;;;;;5079130;28;20016;-74
2022/12/14 08:18:03;;;;;;;43.97;20.80;;;;;;;;;;5077744;28;20035;-75
2022/12/14 08:20:49;;;;;;;38.85;19.50;;;;;;;;;;5079860;28;20024;-75
2022/12/14 08:23:35;;;;;;;36.60;18.92;;;;;;;;;;5095231;28;20093;-75
2022/12/14 08:26:21;;;;;;;35.97;17.42;;;;;;;;;;5095903;28;20016;-74
2022/12/14 08:29:07;;;;;;;35.95;19.17;;;;;;;;;;5095062;28;20134;-75
2022/12/14 08:31:54;;;;;;;36.72;18.38;;;;;;;;;;5096037;28;20111;-76
2022/12/14 08:34:40;;;;;;;37.30;21.05;;;;;;;;;;5094473;28;20027;-75
2022/12/14 08:37:25;;;;;;;35.05;18.92;;;;;;;;;;5080228;28;20032;-76
2022/12/14 08:40:11;;;;;;;37.53;19.70;;;;;;;;;;5096406;28;20016;-76
2022/12/14 08:42:57;;;;;;;33.45;18.65;;;;;;;;;;5096778;28;20027;-75
2022/12/14 08:45:42;;;;;;;37.97;20.08;;;;;;;;;;5094595;28;20028;-76
2022/12/14 08:48:28;;;;;;;34.80;19.65;;;;;;;;;;5095148;28;20062;-75
2022/12/14 08:51:13;;;;;;;42.83;20.65;;;;;;;;;;5080879;28;20170;-76
2022/12/14 08:53:59;;;;;;;39.03;21.27;;;;;;;;;;5095820;28;20031;-76
2022/12/14 08:56:46;;;;;;;39.15;19.55;;;;;;;;;;5081481;28;20020;-75
2022/12/14 08:59:31;;;;;;;34.92;19.88;;;;;;;;;;5095708;28;20077;-77
2022/12/14 09:02:17;;;;;;;42.97;20.35;;;;;;;;;;5095306;28;20077;-76
2022/12/14 09:05:03;;;;;;;34.97;19.33;;;;;;;;;;5093401;28;20028;-81
2022/12/14 09:07:49;;;;;;;37.92;18.65;;;;;;;;;;5070905;28;20062;-77
2022/12/14 09:10:35;;;;;;;45.85;18.63;;;;;;;;;;5092440;28;20034;-75
2022/12/14 09:13:21;;;;;;;37.90;18.98;;;;;;;;;;5095275;28;20039;-75
2022/12/14 09:16:11;;;;;;;43.70;20.05;;;;;;;;;;5114270;28;20032;-75
2022/12/14 09:18:56;;;;;;;50.90;18.98;;;;;;;;;;5094966;28;20479;-74
2022/12/14 09:21:42;;;;;;;45.60;22.58;;;;;;;;;;5095396;28;20024;-75
2022/12/14 09:24:28;;;;;;;36.70;19.05;;;;;;;;;;5093762;28;20042;-75
2022/12/14 09:27:13;;;;;;;39.10;19.25;;;;;;;;;;5077580;28;20020;-75
2022/12/14 09:29:59;;;;;;;36.63;18.65;;;;;;;;;;5079328;28;20326;-76
2022/12/14 09:32:45;;;;;;;38.83;19.52;;;;;;;;;;5093118;28;20082;-74
2022/12/14 09:35:31;;;;;;;37.63;19.20;;;;;;;;;;5092722;28;20335;-75
2022/12/14 09:38:17;;;;;;;50.40;19.40;;;;;;;;;;5094122;28;20031;-74
2022/12/14 09:41:04;;;;;;;42.55;19.15;;;;;;;;;;5094195;28;20020;-75
2022/12/14 09:43:56;;;;;;;39.55;18.40;;;;;;;;;;5093410;28;20051;-76
2022/12/14 09:46:48;;;;;;;41.53;19.50;;;;;;;;;;5078195;28;20119;-77
2022/12/14 09:49:41;;;;;;;41.90;19.13;;;;;;;;;;5079283;28;20441;-75
2022/12/14 09:52:37;;;;;;;35.45;19.45;;;;;;;;;;5093580;28;20110;-75
2022/12/14 09:55:25;;;;;;;39.15;19.23;;;;;;;;;;5094270;28;20024;-75
2022/12/14 09:58:14;;;;;;;45.05;20.63;;;;;;;;;;5093607;28;20431;-76
2022/12/14 10:01:19;;;;;;;42.55;21.17;;;;;;;;;;5097250;28;20384;-76
2022/12/14 10:04:13;;;;;;;33.20;18.58;;;;;;;;;;5104377;28;20032;-74
2022/12/14 10:06:59;;;;;;;30.65;17.60;;;;;;;;;;5100045;28;20020;-76
2022/12/14 10:09:51;;;;;;;35.53;19.88;;;;;;;;;;5093303;28;20418;-75
2022/12/14 10:12:56;;;;;;;36.75;18.13;;;;;;;;;;5092828;28;20346;-76
2022/12/14 10:15:49;;;;;;;273.40;110.57;;;;;;;;;;5093511;28;20016;-75
2022/12/14 10:18:38;;;;;;;47.42;23.02;;;;;;;;;;5081670;28;20047;-75
2022/12/14 10:21:24;;;;;;;35.55;18.65;;;;;;;;;;5105492;28;20024;-77
2022/12/14 10:24:13;;;;;;;42.42;19.98;;;;;;;;;;5092982;28;20016;-74
2022/12/14 10:27:00;;;;;;;63.38;39.08;;;;;;;;;;5092774;28;20363;-77
2022/12/14 10:29:48;;;;;;;43.60;23.00;;;;;;;;;;5093154;28;20032;-75
2022/12/14 10:32:35;;;;;;;68.00;38.10;;;;;;;;;;5094520;28;20081;-75
2022/12/14 10:35:41;;;;;;;38.25;20.00;;;;;;;;;;5097603;28;20028;-75
2022/12/14 10:38:28;;;;;;;40.83;20.58;;;;;;;;;;5093770;28;20031;-75
2022/12/14 10:41:17;;;;;;;42.50;20.63;;;;;;;;;;5096425;28;20461;-75
2022/12/14 10:44:14;;;;;;;39.78;19.80;;;;;;;;;;5096519;28;20555;-75
2022/12/14 10:47:03;;;;;;;37.85;19.40;;;;;;;;;;5096209;28;20020;-75
2022/12/14 10:50:18;;;;;;;38.28;19.55;;;;;;;;;;5096308;28;20020;-75
2022/12/14 10:53:09;;;;;;;49.03;26.85;;;;;;;;;;5017963;28;20036;-76
2022/12/14 10:55:58;;;;;;;38.28;19.90;;;;;;;;;;5088298;28;20101;-75
2022/12/14 10:58:44;;;;;;;35.10;18.45;;;;;;;;;;5096433;28;20016;-76
2022/12/14 11:01:32;;;;;;;34.70;20.83;;;;;;;;;;5095752;28;20046;-75
2022/12/14 11:04:28;;;;;;;34.38;18.52;;;;;;;;;;5095859;28;20074;-76
2022/12/14 11:07:15;;;;;;;34.85;19.45;;;;;;;;;;5097502;28;20024;-74
2022/12/14 11:10:16;;;;;;;36.80;23.92;;;;;;;;;;5081951;28;20032;-74
2022/12/14 11:13:14;;;;;;;48.85;20.90;;;;;;;;;;5096095;28;20032;-73
2022/12/14 11:16:14;;;;;;;38.28;22.52;;;;;;;;;;5096254;28;20032;-73
2022/12/14 11:19:00;;;;;;;28.83;16.65;;;;;;;;;;5095769;28;20016;-76
2022/12/14 11:21:46;;;;;;;39.55;18.88;;;;;;;;;;5081784;28;20350;-72
2022/12/14 11:24:34;;;;;;;35.22;17.30;;;;;;;;;;5100838;28;20024;-74
2022/12/14 11:27:20;;;;;;;34.90;16.95;;;;;;;;;;5084381;28;20012;-75
2022/12/14 11:30:06;;;;;;;29.20;17.13;;;;;;;;;;5108157;28;20031;-74
2022/12/14 11:32:51;;;;;;;29.02;16.77;;;;;;;;;;5101316;28;20027;-75
2022/12/14 11:35:37;;;;;;;30.52;16.83;;;;;;;;;;5095143;28;20052;-76
2022/12/14 11:38:24;;;;;;;34.75;18.00;;;;;;;;;;5096102;28;20101;-74
2022/12/14 11:41:19;;;;;;;33.40;17.55;;;;;;;;;;5081198;28;20012;-75
2022/12/14 11:44:17;;;;;;;36.13;17.85;;;;;;;;;;5081238;28;20020;-80
2022/12/14 11:47:10;;;;;;;36.20;18.17;;;;;;;;;;5081327;28;20020;-78
2022/12/14 11:49:58;;;;;;;36.33;20.23;;;;;;;;;;5095028;28;20036;-79
2022/12/14 11:52:44;;;;;;;47.67;24.85;;;;;;;;;;5094785;28;20020;-76
2022/12/14 11:55:30;;;;;;;36.40;18.23;;;;;;;;;;5094858;28;20112;-75
2022/12/14 11:58:24;;;;;;;46.42;19.27;;;;;;;;;;5095900;28;20024;-77
2022/12/14 12:01:14;;;;;;;46.53;19.52;;;;;;;;;;5095294;28;20052;-75
2022/12/14 12:04:00;;;;;;;33.35;18.67;;;;;;;;;;5095906;28;20456;-78
2022/12/14 12:06:45;;;;;;;46.75;19.33;;;;;;;;;;5080347;28;20031;-77
2022/12/14 12:09:33;;;;;;;31.13;17.80;;;;;;;;;;5095590;28;20024;-77
2022/12/14 12:12:19;;;;;;;39.00;18.88;;;;;;;;;;5094467;28;20024;-78
2022/12/14 12:15:11;;;;;;;31.77;17.55;;;;;;;;;;5094420;28;20152;-78
2022/12/14 12:18:02;;;;;;;27.70;16.77;;;;;;;;;;5081301;28;20016;-76
2022/12/14 12:20:50;;;;;;;31.42;18.23;;;;;;;;;;5080519;28;20051;-78
2022/12/14 12:23:36;;;;;;;35.45;17.63;;;;;;;;;;5095278;28;20016;-78
2022/12/14 12:26:30;;;;;;;31.63;17.58;;;;;;;;;;5094257;28;20063;-76
2022/12/14 12:29:26;;;;;;;32.05;17.23;;;;;;;;;;5094157;28;20020;-75
2022/12/14 12:32:20;;;;;;;33.25;17.80;;;;;;;;;;5094065;28;20370;-77
2022/12/14 12:35:06;;;;;;;36.17;17.88;;;;;;;;;;5079709;28;20089;-74
2022/12/14 12:37:55;;;;;;;29.95;17.92;;;;;;;;;;5095269;28;20080;-78
2022/12/14 12:41:01;;;;;;;31.33;17.67;;;;;;;;;;5081284;28;20038;-77
2022/12/14 12:44:07;;;;;;;34.03;19.65;;;;;;;;;;5094918;28;20012;-78
2022/12/14 12:47:11;;;;;;;32.83;17.70;;;;;;;;;;5094604;28;20040;-74
2022/12/14 12:50:05;;;;;;;36.58;19.00;;;;;;;;;;5094437;28;20034;-76
2022/12/14 12:52:51;;;;;;;33.00;18.73;;;;;;;;;;5094038;28;20039;-75
2022/12/14 12:55:40;;;;;;;34.15;18.73;;;;;;;;;;5078254;28;20365;-76
2022/12/14 12:58:29;;;;;;;33.53;17.55;;;;;;;;;;5079421;28;20026;-77
2022/12/14 13:01:38;;;;;;;32.55;17.63;;;;;;;;;;5080329;28;20123;-76
2022/12/14 13:04:26;;;;;;;32.00;18.80;;;;;;;;;;5079140;28;20013;-85
2022/12/14 13:07:22;;;;;;;31.05;18.67;;;;;;;;;;5079612;28;20039;-75
2022/12/14 13:10:21;;;;;;;38.40;19.45;;;;;;;;;;5079273;28;20020;-73
2022/12/14 13:13:08;;;;;;;35.35;20.52;;;;;;;;;;5094219;28;20028;-75
2022/12/14 13:16:03;;;;;;;40.63;19.25;;;;;;;;;;5094251;28;20092;-75
2022/12/14 13:18:51;;;;;;;34.20;18.85;;;;;;;;;;5079679;28;20405;-75
2022/12/14 13:21:46;;;;;;;36.80;19.13;;;;;;;;;;5079951;28;20362;-75
2022/12/14 13:24:31;;;;;;;36.80;19.88;;;;;;;;;;5093817;28;20019;-75
2022/12/14 13:27:17;;;;;;;38.22;19.67;;;;;;;;;;5094036;28;20012;-74
2022/12/14 13:30:21;;;;;;;42.25;24.02;;;;;;;;;;5099168;28;20016;-73
2022/12/14 13:33:16;;;;;;;36.10;19.38;;;;;;;;;;5104084;28;20134;-74
2022/12/14 13:36:02;;;;;;;37.70;20.48;;;;;;;;;;5103284;28;20024;-74
2022/12/14 13:38:54;;;;;;;33.70;19.42;;;;;;;;;;5103063;28;20044;-74
2022/12/14 13:41:39;;;;;;;32.38;19.23;;;;;;;;;;5104147;28;20435;-72
2022/12/14 13:44:25;;;;;;;31.85;18.30;;;;;;;;;;5097870;28;20039;-75
2022/12/14 13:47:13;;;;;;;34.75;18.23;;;;;;;;;;5087905;28;20375;-74
2022/12/14 13:50:04;;;;;;;38.60;19.10;;;;;;;;;;5099557;28;20020;-72
2022/12/14 13:52:53;;;;;;;30.02;17.10;;;;;;;;;;5087539;28;20031;-73
2022/12/14 13:55:45;;;;;;;28.02;15.52;;;;;;;;;;5098581;28;20085;-73
2022/12/14 13:58:36;;;;;;;30.45;16.83;;;;;;;;;;5097571;28;20012;-74
2022/12/14 14:01:41;;;;;;;31.98;17.02;;;;;;;;;;5096287;28;20059;-73
2022/12/14 14:04:28;;;;;;;29.17;17.05;;;;;;;;;;5097059;28;20454;-74
2022/12/14 14:07:22;;;;;;;29.33;16.95;;;;;;;;;;5094180;28;20032;-73
2022/12/14 14:10:26;;;;;;;29.30;18.05;;;;;;;;;;5082404;28;20366;-73
2022/12/14 14:13:24;;;;;;;29.67;18.05;;;;;;;;;;5097930;28;20404;-73
2022/12/14 14:16:14;;;;;;;33.42;19.95;;;;;;;;;;5082336;28;20066;-77
2022/12/14 14:19:11;;;;;;;36.70;20.60;;;;;;;;;;5097698;28;20094;-73
2022/12/14 14:22:29;;;;;;;35.38;21.27;;;;;;;;;;5100695;28;20051;-75
2022/12/14 14:25:33;;;;;;;36.00;21.42;;;;;;;;;;5038989;28;20024;-73
2022/12/14 14:28:20;;;;;;;33.75;20.55;;;;;;;;;;5085168;28;20038;-72
2022/12/14 14:31:05;;;;;;;33.63;20.15;;;;;;;;;;5091308;28;20016;-74
2022/12/14 14:33:54;;;;;;;34.75;20.42;;;;;;;;;;5108941;28;20416;-70
2022/12/14 14:36:43;;;;;;;33.47;20.02;;;;;;;;;;5103975;28;20024;-72
2022/12/14 14:39:31;;;;;;;34.17;19.77;;;;;;;;;;5101313;28;20353;-71
2022/12/14 14:42:18;;;;;;;34.78;20.35;;;;;;;;;;5109295;28;20042;-75
2022/12/14 14:45:06;;;;;;;34.55;20.23;;;;;;;;;;5111426;28;20020;-75
2022/12/14 14:47:56;;;;;;;34.28;20.58;;;;;;;;;;5103842;28;20093;-72
2022/12/14 14:50:42;;;;;;;36.00;21.30;;;;;;;;;;5098017;28;20031;-75
2022/12/14 14:53:32;;;;;;;35.85;21.13;;;;;;;;;;5082600;28;20031;-74
2022/12/14 14:56:29;;;;;;;34.65;20.52;;;;;;;;;;5096187;28;20118;-74
2022/12/14 14:59:21;;;;;;;32.60;19.80;;;;;;;;;;5094750;28;20023;-72
2022/12/14 15:02:21;;;;;;;35.72;21.00;;;;;;;;;;5095264;28;20044;-73
2022/12/14 15:05:15;;;;;;;35.67;21.33;;;;;;;;;;5080942;28;20453;-72
2022/12/14 15:08:02;;;;;;;35.47;21.08;;;;;;;;;;5081372;28;20058;-72
2022/12/14 15:10:48;;;;;;;37.20;21.95;;;;;;;;;;5095334;28;20020;-73
2022/12/14 15:13:53;;;;;;;33.33;20.48;;;;;;;;;;5095572;28;20032;-73
2022/12/14 15:16:43;;;;;;;34.78;20.67;;;;;;;;;;5094808;28;20028;-72
2022/12/14 15:19:34;;;;;;;37.30;22.15;;;;;;;;;;5096665;28;20071;-71
2022/12/14 15:22:21;;;;;;;36.97;20.55;;;;;;;;;;5094537;28;20405;-73
2022/12/14 15:25:13;;;;;;;38.60;22.33;;;;;;;;;;5080297;28;20019;-80
2022/12/14 15:28:04;;;;;;;37.75;22.08;;;;;;;;;;5096091;28;20386;-77
2022/12/14 15:30:49;;;;;;;43.10;23.85;;;;;;;;;;5095718;28;20030;-74
2022/12/14 15:33:36;;;;;;;42.08;24.58;;;;;;;;;;5094490;28;20027;-78
2022/12/14 15:36:25;;;;;;;44.88;26.35;;;;;;;;;;5080515;28;20016;-77
2022/12/14 15:39:31;;;;;;;74.75;39.25;;;;;;;;;;5094710;28;20031;-76
2022/12/14 15:42:17;;;;;;;72.05;38.95;;;;;;;;;;5095248;28;20452;-76
2022/12/14 15:45:08;;;;;;;58.92;33.83;;;;;;;;;;5094107;28;20331;-78
2022/12/14 15:47:54;;;;;;;58.53;30.98;;;;;;;;;;5094792;28;20031;-78
2022/12/14 15:50:44;;;;;;;54.30;29.42;;;;;;;;;;5080011;28;20466;-77
2022/12/14 15:53:36;;;;;;;52.17;30.23;;;;;;;;;;5094257;28;20024;-77
2022/12/14 15:56:25;;;;;;;65.28;34.35;;;;;;;;;;5094236;28;20109;-75
2022/12/14 15:59:21;;;;;;;58.28;31.83;;;;;;;;;;5095400;28;20039;-74
2022/12/14 16:02:15;;;;;;;76.43;42.38;;;;;;;;;;5080476;28;20048;-77
2022/12/14 16:05:02;;;;;;;246.13;117.07;;;;;;;;;;5093996;28;20101;-78
2022/12/14 16:07:50;;;;;;;74.47;41.72;;;;;;;;;;5086556;28;20345;-76
2022/12/14 16:10:36;;;;;;;74.40;42.53;;;;;;;;;;5094784;28;20144;-76
2022/12/14 16:13:30;;;;;;;65.82;36.95;;;;;;;;;;5094068;28;20055;-79
2022/12/14 16:16:15;;;;;;;69.13;38.08;;;;;;;;;;5094214;28;20123;-77
2022/12/14 16:19:05;;;;;;;139.93;84.68;;;;;;;;;;5094365;28;20031;-76
2022/12/14 16:22:03;;;;;;;147.77;98.07;;;;;;;;;;5095354;28;20450;-77
2022/12/14 16:24:56;;;;;;;55.50;33.00;;;;;;;;;;5094808;28;20035;-75
2022/12/14 16:27:44;;;;;;;52.47;30.50;;;;;;;;;;5093433;28;20023;-74
2022/12/14 16:30:31;;;;;;;50.83;30.60;;;;;;;;;;5079134;28;20460;-77
2022/12/14 16:33:18;;;;;;;45.42;28.05;;;;;;;;;;5079741;28;20016;-76
2022/12/14 16:36:04;;;;;;;41.20;24.30;;;;;;;;;;5093896;28;20015;-80
2022/12/14 16:38:58;;;;;;;41.17;21.35;;;;;;;;;;5080821;28;20016;-78